createdAt,value
2022-08-19T11:01:42.900Z,38.75
2022-08-19T11:03:15.278Z,41.40
2022-08-19T11:04:47.070Z,35.40
2022-08-19T11:06:20.350Z,31.20
2022-08-19T11:07:53.039Z,36.60
2022-08-19T11:09:33.591Z,40.00
2022-08-19T11:11:07.154Z,37.00
2022-08-19T11:12:42.005Z,35.80
2022-08-19T11:14:21.935Z,37.20
2022-08-19T11:16:07.160Z,34.80
2022-08-19T11:17:44.632Z,36.00
2022-08-19T11:19:20.567Z,38.20
2022-08-19T11:20:52.632Z,34.80
2022-08-19T11:22:26.858Z,34.60
2022-08-19T11:24:17.724Z,34.40
2022-08-19T11:25:52.751Z,33.80
2022-08-19T11:27:24.542Z,34.60
2022-08-19T11:28:57.324Z,33.00
2022-08-19T11:30:29.229Z,27.40
2022-08-19T11:32:02.507Z,30.20
2022-08-19T11:33:34.266Z,34.80
2022-08-19T11:35:06.525Z,35.60
2022-08-19T11:36:39.796Z,32.00
2022-08-19T11:38:12.232Z,33.20
2022-08-19T11:39:46.066Z,35.40
2022-08-19T11:41:26.769Z,37.60
2022-08-19T11:42:59.722Z,29.60
2022-08-19T11:44:31.801Z,35.40
2022-08-19T11:46:11.176Z,35.60
2022-08-19T11:47:44.671Z,36.00
2022-08-19T11:49:20.247Z,35.20
2022-08-19T11:50:57.463Z,35.20
2022-08-19T11:52:30.611Z,34.20
2022-08-19T11:54:02.514Z,33.40
2022-08-19T11:55:43.357Z,34.00
2022-08-19T11:57:17.907Z,34.40
2022-08-19T11:58:49.983Z,36.40
2022-08-19T12:00:22.618Z,35.20
2022-08-19T12:01:54.571Z,35.20
2022-08-19T12:03:26.924Z,32.80
2022-08-19T12:05:01.226Z,34.60
2022-08-19T12:06:35.849Z,33.40
2022-08-19T12:08:08.744Z,37.60
2022-08-19T12:09:42.154Z,35.60
2022-08-19T12:11:15.370Z,35.80
2022-08-19T12:12:55.824Z,32.20
2022-08-19T12:14:31.676Z,32.80
2022-08-19T12:16:18.787Z,38.00
2022-08-19T12:17:50.745Z,35.40
2022-08-19T12:19:22.865Z,35.20
2022-08-19T12:20:55.679Z,23.20
2022-08-19T12:22:27.737Z,33.40
2022-08-19T12:23:59.984Z,38.00
2022-08-19T12:25:32.735Z,37.20
2022-08-19T12:27:04.671Z,37.40
2022-08-19T12:28:36.517Z,39.20
2022-08-19T12:30:10.372Z,38.40
2022-08-19T12:31:42.240Z,35.60
2022-08-19T12:33:15.186Z,35.00
2022-08-19T12:34:48.371Z,34.00
2022-08-19T12:36:20.309Z,40.00
2022-08-19T12:37:57.627Z,35.80
2022-08-19T12:39:29.609Z,37.20
2022-08-19T12:41:01.650Z,35.80
2022-08-19T12:42:33.476Z,39.20
2022-08-19T12:44:07.230Z,40.20
2022-08-19T12:45:40.098Z,40.80
2022-08-19T12:47:18.065Z,38.40
2022-08-19T12:48:54.086Z,40.60
2022-08-19T12:50:27.179Z,36.20
2022-08-19T12:52:02.568Z,40.00
2022-08-19T12:53:34.616Z,39.20
2022-08-19T12:55:13.077Z,41.40
2022-08-19T12:56:45.857Z,41.00
2022-08-19T12:58:26.731Z,39.80
2022-08-19T12:59:59.338Z,43.60
2022-08-19T13:01:33.682Z,42.00
2022-08-19T13:03:05.445Z,41.80
2022-08-19T13:04:41.408Z,39.40
2022-08-19T13:06:13.228Z,39.60
2022-08-19T13:07:45.066Z,40.80
2022-08-19T13:09:16.812Z,42.60
2022-08-19T13:10:48.520Z,40.40
2022-08-19T13:12:21.417Z,43.00
2022-08-19T13:13:57.056Z,40.00
2022-08-19T13:15:29.807Z,42.40
2022-08-19T13:17:01.862Z,40.40
2022-08-19T13:18:33.690Z,42.20
2022-08-19T13:20:08.489Z,40.40
2022-08-19T13:21:40.343Z,42.00
2022-08-19T13:23:14.611Z,42.20
2022-08-19T13:24:47.561Z,42.80
2022-08-19T13:26:19.612Z,42.40
2022-08-19T13:27:51.917Z,43.00
2022-08-19T13:29:43.029Z,39.40
2022-08-19T13:31:40.519Z,40.40
2022-08-19T13:33:12.334Z,41.20
2022-08-19T13:34:44.106Z,40.60
2022-08-19T13:36:15.855Z,41.40
2022-08-19T13:37:51.787Z,40.40
2022-08-19T13:39:25.997Z,38.40
2022-08-19T13:40:57.901Z,34.60
2022-08-19T13:42:30.927Z,41.20
2022-08-19T13:44:03.398Z,38.80
2022-08-19T13:45:35.257Z,40.40
2022-08-19T13:47:08.237Z,36.60
2022-08-19T13:48:40.052Z,37.40
2022-08-19T13:50:13.076Z,37.40
2022-08-19T13:51:44.931Z,36.80
2022-08-19T13:53:16.854Z,39.80
2022-08-19T13:54:49.484Z,39.40
2022-08-19T13:56:25.529Z,35.80
2022-08-19T13:58:00.735Z,41.20
2022-08-19T13:59:33.362Z,39.80
2022-08-19T14:01:05.381Z,40.00
2022-08-19T14:02:38.659Z,37.40
2022-08-19T14:04:11.435Z,36.00
2022-08-19T14:05:43.440Z,40.00
2022-08-19T14:07:15.241Z,35.80
2022-08-19T14:08:47.318Z,39.20
2022-08-19T14:10:19.924Z,37.00
2022-08-19T14:11:52.383Z,40.20
2022-08-19T14:13:24.423Z,38.00
2022-08-19T14:14:56.488Z,40.20
2022-08-19T14:16:28.368Z,42.20
2022-08-19T14:18:00.444Z,40.20
2022-08-19T14:19:32.921Z,40.80
2022-08-19T14:21:05.838Z,41.60
2022-08-19T14:22:40.884Z,43.20
2022-08-19T14:24:14.844Z,43.20
2022-08-19T14:25:47.487Z,45.20
2022-08-19T14:27:19.282Z,39.80
2022-08-19T14:28:53.114Z,42.00
2022-08-19T14:30:28.458Z,43.00
2022-08-19T14:32:00.218Z,37.80
2022-08-19T14:33:33.584Z,43.00
2022-08-19T14:35:05.897Z,43.20
2022-08-19T14:36:39.391Z,41.40
2022-08-19T14:38:16.401Z,43.40
2022-08-19T14:39:48.191Z,37.40
2022-08-19T14:41:22.775Z,42.80
2022-08-19T14:43:00.405Z,42.60
2022-08-19T14:44:32.805Z,40.80
2022-08-19T14:46:04.601Z,40.60
2022-08-19T14:47:36.377Z,42.00
2022-08-19T14:49:11.820Z,35.40
2022-08-19T14:50:43.986Z,41.60
2022-08-19T14:52:17.049Z,40.40
2022-08-19T14:53:51.723Z,33.40
2022-08-19T14:55:23.594Z,36.00
2022-08-19T14:56:55.419Z,40.00
2022-08-19T14:58:29.733Z,38.20
2022-08-19T15:00:04.548Z,40.00
2022-08-19T15:01:36.637Z,40.80
2022-08-19T15:03:08.482Z,36.00
2022-08-19T15:04:40.222Z,36.20
2022-08-19T15:06:12.689Z,41.20
2022-08-19T15:07:46.010Z,40.60
2022-08-19T15:09:17.794Z,43.80
2022-08-19T15:10:49.774Z,44.60
2022-08-19T15:12:23.028Z,49.40
2022-08-19T15:13:58.184Z,49.20
2022-08-19T15:15:29.941Z,46.20
2022-08-19T15:17:05.582Z,47.80
2022-08-19T15:18:37.627Z,49.40
2022-08-19T15:20:10.237Z,47.60
2022-08-19T15:21:42.265Z,48.60
2022-08-19T15:23:17.752Z,43.40
2022-08-19T15:24:49.694Z,45.80
2022-08-19T15:26:21.930Z,45.00
2022-08-19T15:27:54.509Z,44.60
2022-08-19T15:29:26.604Z,42.80
2022-08-19T15:30:58.359Z,43.60
2022-08-19T15:32:30.420Z,43.80
2022-08-19T15:34:02.311Z,45.40
2022-08-19T15:35:34.024Z,43.80
2022-08-19T15:37:06.119Z,41.20
2022-08-19T15:38:41.110Z,41.20
2022-08-19T15:40:15.000Z,41.00
2022-08-19T15:41:46.929Z,42.60
2022-08-19T15:43:24.229Z,39.20
2022-08-19T15:44:56.832Z,39.20
2022-08-19T15:46:33.998Z,35.80
2022-08-19T15:48:06.141Z,39.20
2022-08-19T15:49:38.034Z,38.80
2022-08-19T15:51:09.736Z,38.80
2022-08-19T15:52:50.058Z,35.80
2022-08-19T15:54:22.228Z,38.60
2022-08-19T15:55:54.664Z,38.00
2022-08-19T15:57:26.396Z,37.40
2022-08-19T15:59:19.242Z,39.20
2022-08-19T16:01:12.751Z,39.40
2022-08-19T16:03:05.763Z,34.60
2022-08-19T16:04:58.005Z,37.00
2022-08-19T16:06:29.836Z,35.20
2022-08-19T16:08:01.572Z,39.40
2022-08-19T16:09:34.830Z,33.20
2022-08-19T16:11:06.606Z,33.80
2022-08-19T16:12:39.275Z,34.60
2022-08-19T16:14:11.346Z,32.80
2022-08-19T16:15:44.954Z,35.80
2022-08-19T16:17:16.834Z,39.20
2022-08-19T16:18:49.951Z,34.40
2022-08-19T16:20:22.331Z,37.60
2022-08-19T16:21:56.559Z,39.00
2022-08-19T16:23:29.230Z,36.40
2022-08-19T16:25:01.319Z,39.20
2022-08-19T16:26:34.937Z,42.40
2022-08-19T16:28:08.634Z,39.20
2022-08-19T16:29:43.138Z,41.40
2022-08-19T16:31:15.521Z,40.40
2022-08-19T16:32:47.254Z,35.80
2022-08-19T16:34:19.174Z,35.80
2022-08-19T16:36:00.282Z,39.80
2022-08-19T16:37:38.682Z,32.20
2022-08-19T16:39:11.515Z,36.40
2022-08-19T16:40:46.668Z,36.60
2022-08-19T16:42:18.703Z,34.00
2022-08-19T16:43:52.585Z,36.00
2022-08-19T16:45:24.618Z,33.40
2022-08-19T16:46:58.737Z,34.80
2022-08-19T16:48:30.918Z,33.20
2022-08-19T16:50:03.237Z,37.80
2022-08-19T16:51:35.046Z,37.20
2022-08-19T16:53:07.609Z,35.00
2022-08-19T16:54:39.439Z,33.80
2022-08-19T16:56:12.155Z,33.80
2022-08-19T16:57:43.961Z,33.00
2022-08-19T16:59:16.745Z,33.40
2022-08-19T17:00:49.929Z,35.00
2022-08-19T17:02:23.298Z,34.80
2022-08-19T17:03:55.301Z,33.20
2022-08-19T17:05:28.545Z,28.80
2022-08-19T17:07:00.324Z,32.20
2022-08-19T17:08:34.224Z,32.20
2022-08-19T17:10:06.486Z,35.40
2022-08-19T17:11:38.262Z,33.80
2022-08-19T17:13:10.451Z,30.00
2022-08-19T17:14:45.524Z,32.40
2022-08-19T17:16:18.568Z,34.60
2022-08-19T17:17:50.342Z,35.40
2022-08-19T17:19:22.195Z,33.00
2022-08-19T17:20:55.078Z,30.80
2022-08-19T17:22:28.858Z,35.00
2022-08-19T17:24:01.477Z,35.20
2022-08-19T17:25:35.719Z,29.60
2022-08-19T17:27:07.941Z,33.60
2022-08-19T17:28:39.666Z,34.00
2022-08-19T17:30:13.298Z,35.60
2022-08-19T17:31:45.077Z,34.80
2022-08-19T17:33:16.958Z,36.20
2022-08-19T17:34:50.066Z,33.20
2022-08-19T17:36:26.298Z,36.40
2022-08-19T17:37:58.584Z,35.60
2022-08-19T17:39:30.431Z,37.20
2022-08-19T17:41:08.991Z,33.80
2022-08-19T17:42:45.505Z,34.20
2022-08-19T17:44:23.838Z,30.00
2022-08-19T17:45:57.997Z,33.80
2022-08-19T17:47:31.356Z,32.40
2022-08-19T17:49:03.083Z,30.00
2022-08-19T17:50:36.424Z,30.20
2022-08-19T17:52:10.100Z,33.20
2022-08-19T17:53:41.986Z,30.00
2022-08-19T17:55:13.761Z,35.00
2022-08-19T17:56:46.650Z,34.40
2022-08-19T17:58:20.706Z,31.20
2022-08-19T17:59:55.489Z,32.20
2022-08-19T18:01:52.335Z,29.00
2022-08-19T18:03:24.408Z,32.20
2022-08-19T18:04:56.287Z,31.20
2022-08-19T18:06:29.617Z,32.60
2022-08-19T18:08:02.361Z,32.20
2022-08-19T18:09:42.541Z,31.80
2022-08-19T18:11:15.080Z,28.00
2022-08-19T18:12:46.937Z,32.20
2022-08-19T18:14:19.007Z,33.40
2022-08-19T18:15:50.922Z,30.60
2022-08-19T18:17:26.439Z,32.60
2022-08-19T18:19:01.595Z,31.80
2022-08-19T18:20:33.596Z,30.20
2022-08-19T18:22:06.019Z,30.20
2022-08-19T18:23:45.439Z,29.80
2022-08-19T18:25:19.517Z,32.00
2022-08-19T18:26:52.310Z,31.60
2022-08-19T18:28:25.928Z,32.20
2022-08-19T18:30:00.435Z,30.80
2022-08-19T18:31:33.277Z,35.20
2022-08-19T18:33:09.793Z,30.20
2022-08-19T18:34:41.946Z,29.80
2022-08-19T18:36:13.922Z,30.40
2022-08-19T18:37:47.159Z,29.60
2022-08-19T18:39:38.136Z,30.00
2022-08-19T18:41:29.658Z,30.40
2022-08-19T18:43:22.445Z,32.00
2022-08-19T18:45:16.136Z,32.20
2022-08-19T18:47:06.546Z,30.00
2022-08-19T18:49:05.152Z,31.60
2022-08-19T18:50:43.281Z,32.80
2022-08-19T18:52:19.645Z,32.80
2022-08-19T18:53:58.154Z,31.20
2022-08-19T18:55:31.298Z,30.20
2022-08-19T18:57:05.819Z,33.00
2022-08-19T18:58:38.310Z,30.60
2022-08-19T19:00:10.895Z,33.40
2022-08-19T19:01:52.354Z,29.20
2022-08-19T19:03:27.311Z,26.00
2022-08-19T19:04:59.833Z,34.80
2022-08-19T19:06:39.936Z,25.60
2022-08-19T19:08:13.728Z,26.60
2022-08-19T19:09:51.191Z,32.00
2022-08-19T19:11:28.004Z,33.40
2022-08-19T19:13:01.643Z,30.40
2022-08-19T19:14:50.746Z,27.80
2022-08-19T19:16:24.586Z,33.40
2022-08-19T19:17:56.893Z,33.20
2022-08-19T19:19:33.046Z,30.40
2022-08-19T19:21:06.434Z,29.60
2022-08-19T19:22:41.027Z,31.40
2022-08-19T19:24:15.433Z,30.60
2022-08-19T19:25:50.525Z,16.20
2022-08-19T19:27:23.399Z,31.80
2022-08-19T19:28:56.288Z,32.40
2022-08-19T19:30:31.795Z,31.80
2022-08-19T19:32:08.960Z,33.80
2022-08-19T19:33:41.857Z,28.00
2022-08-19T19:35:13.567Z,32.40
2022-08-19T19:36:45.295Z,35.40
2022-08-19T19:38:17.233Z,33.80
2022-08-19T19:39:49.036Z,32.60
2022-08-19T19:41:25.135Z,35.40
2022-08-19T19:42:57.176Z,33.60
2022-08-19T19:44:30.686Z,32.40
2022-08-19T19:46:06.185Z,33.20
2022-08-19T19:47:39.883Z,33.40
2022-08-19T19:49:11.712Z,32.00
2022-08-19T19:50:44.371Z,27.00
2022-08-19T19:52:16.197Z,30.40
2022-08-19T19:53:47.962Z,31.60
2022-08-19T19:55:20.087Z,29.80
2022-08-19T19:56:51.952Z,29.40
2022-08-19T19:58:28.922Z,34.40
2022-08-19T20:00:01.037Z,33.80
2022-08-19T20:01:32.956Z,35.80
2022-08-19T20:03:06.394Z,34.20
2022-08-19T20:04:38.687Z,35.00
2022-08-19T20:06:12.725Z,18.20
2022-08-19T20:08:02.948Z,33.60
2022-08-19T20:09:56.385Z,36.40
2022-08-19T20:11:31.340Z,33.40
2022-08-19T20:13:03.838Z,37.20
2022-08-19T20:14:37.924Z,30.80
2022-08-19T20:16:10.180Z,34.60
2022-08-19T20:17:42.746Z,31.40
2022-08-19T20:19:16.390Z,36.60
2022-08-19T20:20:50.165Z,32.60
2022-08-19T20:22:22.751Z,31.80
2022-08-19T20:24:09.633Z,35.20
2022-08-19T20:25:42.109Z,28.60
2022-08-19T20:27:14.262Z,31.20
2022-08-19T20:28:50.717Z,30.80
2022-08-19T20:30:34.462Z,34.60
2022-08-19T20:32:06.288Z,32.40
2022-08-19T20:33:40.498Z,33.20
2022-08-19T20:35:13.398Z,34.80
2022-08-19T20:36:45.197Z,38.20
2022-08-19T20:38:17.011Z,33.40
2022-08-19T20:39:48.823Z,34.00
2022-08-19T20:41:20.988Z,31.80
2022-08-19T20:42:54.293Z,36.40
2022-08-19T20:44:26.083Z,35.00
2022-08-19T20:45:58.031Z,28.40
2022-08-19T20:47:32.015Z,35.60
2022-08-19T20:49:03.939Z,35.80
2022-08-19T20:50:37.781Z,36.00
2022-08-19T20:52:09.596Z,38.80
2022-08-19T20:53:41.707Z,38.00
2022-08-19T20:55:14.581Z,38.00
2022-08-19T20:56:48.760Z,36.80
2022-08-19T20:58:21.559Z,36.00
2022-08-19T20:59:53.506Z,37.00
2022-08-19T21:01:27.030Z,38.80
2022-08-19T21:02:59.070Z,35.20
2022-08-19T21:04:30.874Z,38.40
2022-08-19T21:06:04.139Z,37.00
2022-08-19T21:07:39.359Z,38.80
2022-08-19T21:09:11.534Z,41.00
2022-08-19T21:10:44.595Z,39.40
2022-08-19T21:12:16.414Z,39.00
2022-08-19T21:13:48.765Z,39.80
2022-08-19T21:15:20.598Z,41.80
2022-08-19T21:16:52.431Z,40.60
2022-08-19T21:18:26.718Z,42.20
2022-08-19T21:19:58.985Z,41.20
2022-08-19T21:21:31.099Z,42.20
2022-08-19T21:23:06.930Z,43.40
2022-08-19T21:24:38.808Z,41.00
2022-08-19T21:26:10.806Z,39.00
2022-08-19T21:27:43.713Z,41.60
2022-08-19T21:29:15.483Z,39.80
2022-08-19T21:30:47.300Z,45.20
2022-08-19T21:32:20.068Z,41.80
2022-08-19T21:33:53.083Z,39.80
2022-08-19T21:35:24.869Z,43.20
2022-08-19T21:36:56.772Z,40.00
2022-08-19T21:38:28.665Z,44.40
2022-08-19T21:40:00.568Z,41.40
2022-08-19T21:41:32.484Z,38.60
2022-08-19T21:43:06.552Z,40.20
2022-08-19T21:44:38.723Z,40.00
2022-08-19T21:46:18.681Z,43.80
2022-08-19T21:47:50.843Z,39.00
2022-08-19T21:49:22.854Z,41.80
2022-08-19T21:50:54.771Z,41.80
2022-08-19T21:52:26.784Z,41.60
2022-08-19T21:53:59.057Z,41.20
2022-08-19T21:55:31.381Z,43.40
2022-08-19T21:57:03.329Z,36.40
2022-08-19T21:58:42.235Z,40.20
2022-08-19T22:00:19.615Z,34.60
2022-08-19T22:02:05.624Z,32.40
2022-08-19T22:03:44.341Z,38.20
2022-08-19T22:05:22.941Z,37.00
2022-08-19T22:06:54.764Z,41.00
2022-08-19T22:08:27.305Z,39.80
2022-08-19T22:09:59.172Z,39.60
2022-08-19T22:11:30.906Z,41.00
2022-08-19T22:13:03.945Z,40.40
2022-08-19T22:14:36.690Z,41.60
2022-08-19T22:16:09.676Z,43.60
2022-08-19T22:17:41.893Z,44.80
2022-08-19T22:19:14.815Z,43.20
2022-08-19T22:20:47.909Z,42.60
2022-08-19T22:22:30.392Z,44.00
2022-08-19T22:24:04.163Z,41.80
2022-08-19T22:25:42.449Z,41.20
2022-08-19T22:27:14.241Z,39.00
2022-08-19T22:28:46.042Z,40.80
2022-08-19T22:30:20.352Z,43.60
2022-08-19T22:31:54.492Z,42.60
2022-08-19T22:33:30.010Z,39.80
